sensor_id;sensor_type;location;lat;lon;timestamp;P1;durP1;ratioP1;P2;durP2;ratioP2
28802;SDS011;15949;55.656;37.422;2022-10-22T00:01:04;14.30;;;10.52;;
28802;SDS011;15949;55.656;37.422;2022-10-22T00:06:09;13.85;;;10.25;;
28802;SDS011;15949;55.656;37.422;2022-10-22T00:11:16;15.48;;;9.73;;
28802;SDS011;15949;55.656;37.422;2022-10-22T00:16:23;14.98;;;11.52;;
28802;SDS011;15949;55.656;37.422;2022-10-22T00:21:29;14.10;;;11.00;;
28802;SDS011;15949;55.656;37.422;2022-10-22T00:26:35;18.08;;;11.65;;
28802;SDS011;15949;55.656;37.422;2022-10-22T00:31:40;17.50;;;10.63;;
28802;SDS011;15949;55.656;37.422;2022-10-22T00:36:46;16.25;;;11.18;;
28802;SDS011;15949;55.656;37.422;2022-10-22T00:41:54;15.93;;;11.27;;
28802;SDS011;15949;55.656;37.422;2022-10-22T00:47:01;14.95;;;10.60;;
28802;SDS011;15949;55.656;37.422;2022-10-22T00:52:06;14.32;;;10.98;;
28802;SDS011;15949;55.656;37.422;2022-10-22T00:57:12;14.48;;;11.57;;
28802;SDS011;15949;55.656;37.422;2022-10-22T01:02:20;13.68;;;9.88;;
28802;SDS011;15949;55.656;37.422;2022-10-22T01:07:25;13.27;;;9.45;;
28802;SDS011;15949;55.656;37.422;2022-10-22T01:12:38;11.38;;;9.13;;
28802;SDS011;15949;55.656;37.422;2022-10-22T01:18:08;14.85;;;9.73;;
28802;SDS011;15949;55.656;37.422;2022-10-22T01:28:57;14.18;;;9.90;;
28802;SDS011;15949;55.656;37.422;2022-10-22T01:34:05;15.02;;;8.85;;
28802;SDS011;15949;55.656;37.422;2022-10-22T01:39:13;15.90;;;9.63;;
28802;SDS011;15949;55.656;37.422;2022-10-22T01:44:24;11.45;;;9.32;;
28802;SDS011;15949;55.656;37.422;2022-10-22T02:00:14;16.65;;;10.70;;
28802;SDS011;15949;55.656;37.422;2022-10-22T02:10:53;13.82;;;10.55;;
28802;SDS011;15949;55.656;37.422;2022-10-22T02:15:59;13.90;;;10.50;;
28802;SDS011;15949;55.656;37.422;2022-10-22T02:21:07;16.48;;;10.55;;
28802;SDS011;15949;55.656;37.422;2022-10-22T02:26:15;12.88;;;9.77;;
28802;SDS011;15949;55.656;37.422;2022-10-22T02:31:30;15.88;;;11.73;;
28802;SDS011;15949;55.656;37.422;2022-10-22T02:36:38;17.35;;;11.75;;
28802;SDS011;15949;55.656;37.422;2022-10-22T02:41:45;15.20;;;11.13;;
28802;SDS011;15949;55.656;37.422;2022-10-22T02:46:51;17.70;;;12.57;;
28802;SDS011;15949;55.656;37.422;2022-10-22T02:51:57;19.33;;;13.38;;
28802;SDS011;15949;55.656;37.422;2022-10-22T02:57:03;18.48;;;13.35;;
28802;SDS011;15949;55.656;37.422;2022-10-22T03:02:09;16.40;;;13.50;;
28802;SDS011;15949;55.656;37.422;2022-10-22T03:07:14;21.60;;;14.25;;
28802;SDS011;15949;55.656;37.422;2022-10-22T03:12:20;20.52;;;14.50;;
28802;SDS011;15949;55.656;37.422;2022-10-22T03:17:26;20.05;;;14.73;;
28802;SDS011;15949;55.656;37.422;2022-10-22T03:22:31;19.63;;;14.35;;
28802;SDS011;15949;55.656;37.422;2022-10-22T03:27:39;18.45;;;14.75;;
28802;SDS011;15949;55.656;37.422;2022-10-22T03:32:46;21.65;;;15.43;;
28802;SDS011;15949;55.656;37.422;2022-10-22T03:37:51;20.20;;;14.48;;
28802;SDS011;15949;55.656;37.422;2022-10-22T03:42:58;17.45;;;13.23;;
28802;SDS011;15949;55.656;37.422;2022-10-22T03:48:04;15.70;;;12.80;;
28802;SDS011;15949;55.656;37.422;2022-10-22T03:53:10;15.82;;;12.10;;
28802;SDS011;15949;55.656;37.422;2022-10-22T03:58:16;18.00;;;13.38;;
28802;SDS011;15949;55.656;37.422;2022-10-22T04:03:21;16.63;;;12.80;;
28802;SDS011;15949;55.656;37.422;2022-10-22T04:08:27;16.67;;;12.10;;
28802;SDS011;15949;55.656;37.422;2022-10-22T04:13:32;20.52;;;12.10;;
28802;SDS011;15949;55.656;37.422;2022-10-22T04:18:39;15.15;;;12.38;;
28802;SDS011;15949;55.656;37.422;2022-10-22T04:23:46;16.70;;;13.15;;
28802;SDS011;15949;55.656;37.422;2022-10-22T04:28:53;18.75;;;13.63;;
28802;SDS011;15949;55.656;37.422;2022-10-22T04:33:59;17.98;;;14.00;;
28802;SDS011;15949;55.656;37.422;2022-10-22T04:39:05;21.90;;;14.48;;
28802;SDS011;15949;55.656;37.422;2022-10-22T04:44:11;21.13;;;15.02;;
28802;SDS011;15949;55.656;37.422;2022-10-22T04:49:16;19.52;;;13.45;;
28802;SDS011;15949;55.656;37.422;2022-10-22T04:54:22;18.08;;;12.45;;
28802;SDS011;15949;55.656;37.422;2022-10-22T04:59:28;14.88;;;12.20;;
28802;SDS011;15949;55.656;37.422;2022-10-22T05:04:33;15.38;;;11.68;;
28802;SDS011;15949;55.656;37.422;2022-10-22T05:09:39;15.20;;;11.80;;
28802;SDS011;15949;55.656;37.422;2022-10-22T05:14:44;13.90;;;10.93;;
28802;SDS011;15949;55.656;37.422;2022-10-22T05:19:50;15.52;;;11.45;;
28802;SDS011;15949;55.656;37.422;2022-10-22T05:24:56;14.32;;;11.27;;
28802;SDS011;15949;55.656;37.422;2022-10-22T05:30:01;14.30;;;10.52;;
28802;SDS011;15949;55.656;37.422;2022-10-22T05:35:07;11.90;;;9.70;;
28802;SDS011;15949;55.656;37.422;2022-10-22T05:40:13;13.98;;;10.35;;
28802;SDS011;15949;55.656;37.422;2022-10-22T05:45:18;13.90;;;10.43;;
28802;SDS011;15949;55.656;37.422;2022-10-22T05:50:24;14.50;;;10.70;;
28802;SDS011;15949;55.656;37.422;2022-10-22T05:55:33;13.50;;;10.77;;
28802;SDS011;15949;55.656;37.422;2022-10-22T06:00:41;14.05;;;10.55;;
28802;SDS011;15949;55.656;37.422;2022-10-22T06:05:46;12.02;;;9.77;;
28802;SDS011;15949;55.656;37.422;2022-10-22T06:10:52;16.17;;;10.02;;
28802;SDS011;15949;55.656;37.422;2022-10-22T06:15:58;13.65;;;9.27;;
28802;SDS011;15949;55.656;37.422;2022-10-22T06:21:08;16.85;;;9.55;;
28802;SDS011;15949;55.656;37.422;2022-10-22T06:26:15;12.50;;;8.88;;
28802;SDS011;15949;55.656;37.422;2022-10-22T06:31:22;17.92;;;8.93;;
28802;SDS011;15949;55.656;37.422;2022-10-22T06:36:29;15.63;;;9.68;;
28802;SDS011;15949;55.656;37.422;2022-10-22T06:41:34;13.25;;;8.43;;
28802;SDS011;15949;55.656;37.422;2022-10-22T06:46:40;9.77;;;8.13;;
28802;SDS011;15949;55.656;37.422;2022-10-22T06:51:50;9.70;;;6.97;;
28802;SDS011;15949;55.656;37.422;2022-10-22T06:56:56;10.98;;;7.85;;
28802;SDS011;15949;55.656;37.422;2022-10-22T07:02:02;14.88;;;8.07;;
28802;SDS011;15949;55.656;37.422;2022-10-22T07:07:07;13.02;;;9.32;;
28802;SDS011;15949;55.656;37.422;2022-10-22T07:12:14;14.02;;;10.50;;
28802;SDS011;15949;55.656;37.422;2022-10-22T07:17:21;11.65;;;10.45;;
28802;SDS011;15949;55.656;37.422;2022-10-22T07:22:26;11.40;;;9.65;;
28802;SDS011;15949;55.656;37.422;2022-10-22T07:27:32;14.15;;;9.88;;
28802;SDS011;15949;55.656;37.422;2022-10-22T07:32:37;14.93;;;10.98;;
28802;SDS011;15949;55.656;37.422;2022-10-22T07:37:43;13.13;;;9.43;;
28802;SDS011;15949;55.656;37.422;2022-10-22T07:42:48;13.88;;;9.23;;
28802;SDS011;15949;55.656;37.422;2022-10-22T07:47:54;16.73;;;8.60;;
28802;SDS011;15949;55.656;37.422;2022-10-22T07:52:59;9.05;;;6.22;;
28802;SDS011;15949;55.656;37.422;2022-10-22T07:58:05;11.70;;;5.60;;
28802;SDS011;15949;55.656;37.422;2022-10-22T08:03:11;7.43;;;4.50;;
28802;SDS011;15949;55.656;37.422;2022-10-22T08:08:17;7.28;;;4.85;;
28802;SDS011;15949;55.656;37.422;2022-10-22T08:13:24;8.40;;;5.13;;
28802;SDS011;15949;55.656;37.422;2022-10-22T08:18:30;6.85;;;4.85;;
28802;SDS011;15949;55.656;37.422;2022-10-22T08:23:36;5.68;;;4.15;;
28802;SDS011;15949;55.656;37.422;2022-10-22T08:28:41;8.55;;;4.50;;
28802;SDS011;15949;55.656;37.422;2022-10-22T08:33:47;8.55;;;4.38;;
28802;SDS011;15949;55.656;37.422;2022-10-22T08:38:52;11.50;;;4.47;;
28802;SDS011;15949;55.656;37.422;2022-10-22T08:49:42;6.60;;;4.28;;
28802;SDS011;15949;55.656;37.422;2022-10-22T09:05:28;7.60;;;5.25;;
28802;SDS011;15949;55.656;37.422;2022-10-22T09:10:33;5.40;;;4.65;;
28802;SDS011;15949;55.656;37.422;2022-10-22T09:20:55;8.73;;;4.47;;
28802;SDS011;15949;55.656;37.422;2022-10-22T09:26:14;7.30;;;4.50;;
28802;SDS011;15949;55.656;37.422;2022-10-22T09:31:20;6.25;;;4.47;;
28802;SDS011;15949;55.656;37.422;2022-10-22T09:36:27;6.75;;;4.85;;
28802;SDS011;15949;55.656;37.422;2022-10-22T09:41:33;7.35;;;4.95;;
28802;SDS011;15949;55.656;37.422;2022-10-22T09:46:39;6.47;;;4.88;;
28802;SDS011;15949;55.656;37.422;2022-10-22T09:51:58;8.10;;;4.73;;
28802;SDS011;15949;55.656;37.422;2022-10-22T09:57:09;5.68;;;3.92;;
28802;SDS011;15949;55.656;37.422;2022-10-22T10:02:21;10.10;;;4.60;;
28802;SDS011;15949;55.656;37.422;2022-10-22T10:07:31;13.80;;;7.40;;
28802;SDS011;15949;55.656;37.422;2022-10-22T10:18:11;6.95;;;3.88;;
28802;SDS011;15949;55.656;37.422;2022-10-22T10:23:35;7.15;;;3.63;;
28802;SDS011;15949;55.656;37.422;2022-10-22T10:50:30;4.45;;;3.20;;
28802;SDS011;15949;55.656;37.422;2022-10-22T10:55:58;6.50;;;3.13;;
28802;SDS011;15949;55.656;37.422;2022-10-22T11:01:14;6.78;;;3.40;;
28802;SDS011;15949;55.656;37.422;2022-10-22T11:06:29;5.13;;;3.20;;
28802;SDS011;15949;55.656;37.422;2022-10-22T11:16:52;4.93;;;3.30;;
28802;SDS011;15949;55.656;37.422;2022-10-22T11:22:14;20.52;;;3.70;;
28802;SDS011;15949;55.656;37.422;2022-10-22T11:33:01;6.75;;;3.40;;
28802;SDS011;15949;55.656;37.422;2022-10-22T11:38:14;5.15;;;3.22;;
28802;SDS011;15949;55.656;37.422;2022-10-22T11:43:28;5.65;;;3.22;;
28802;SDS011;15949;55.656;37.422;2022-10-22T11:48:37;5.82;;;4.15;;
28802;SDS011;15949;55.656;37.422;2022-10-22T11:53:42;5.30;;;3.25;;
28802;SDS011;15949;55.656;37.422;2022-10-22T11:58:48;6.72;;;3.85;;
28802;SDS011;15949;55.656;37.422;2022-10-22T12:09:00;6.15;;;3.42;;
28802;SDS011;15949;55.656;37.422;2022-10-22T12:20:10;3.38;;;2.50;;
28802;SDS011;15949;55.656;37.422;2022-10-22T12:25:18;5.30;;;2.88;;
28802;SDS011;15949;55.656;37.422;2022-10-22T12:30:28;5.05;;;3.40;;
28802;SDS011;15949;55.656;37.422;2022-10-22T12:35:42;13.02;;;7.13;;
28802;SDS011;15949;55.656;37.422;2022-10-22T12:40:53;10.75;;;4.00;;
28802;SDS011;15949;55.656;37.422;2022-10-22T12:46:00;6.03;;;2.92;;
28802;SDS011;15949;55.656;37.422;2022-10-22T12:51:06;5.57;;;4.38;;
28802;SDS011;15949;55.656;37.422;2022-10-22T12:56:15;7.03;;;4.35;;
28802;SDS011;15949;55.656;37.422;2022-10-22T13:01:33;9.15;;;4.60;;
28802;SDS011;15949;55.656;37.422;2022-10-22T13:06:45;7.07;;;3.30;;
28802;SDS011;15949;55.656;37.422;2022-10-22T13:12:01;3.13;;;2.50;;
28802;SDS011;15949;55.656;37.422;2022-10-22T13:17:11;5.40;;;3.50;;
28802;SDS011;15949;55.656;37.422;2022-10-22T13:22:30;5.65;;;3.53;;
28802;SDS011;15949;55.656;37.422;2022-10-22T13:38:41;94.38;;;46.78;;
28802;SDS011;15949;55.656;37.422;2022-10-22T13:43:47;153.10;;;74.65;;
28802;SDS011;15949;55.656;37.422;2022-10-22T13:48:54;79.82;;;38.15;;
28802;SDS011;15949;55.656;37.422;2022-10-22T13:54:01;23.52;;;12.65;;
28802;SDS011;15949;55.656;37.422;2022-10-22T13:59:08;13.82;;;8.23;;
28802;SDS011;15949;55.656;37.422;2022-10-22T14:04:14;13.32;;;8.75;;
28802;SDS011;15949;55.656;37.422;2022-10-22T14:09:20;19.27;;;11.43;;
28802;SDS011;15949;55.656;37.422;2022-10-22T14:14:25;20.55;;;13.52;;
28802;SDS011;15949;55.656;37.422;2022-10-22T14:19:31;19.65;;;12.88;;
28802;SDS011;15949;55.656;37.422;2022-10-22T14:24:36;17.63;;;13.27;;
28802;SDS011;15949;55.656;37.422;2022-10-22T14:29:42;17.85;;;12.13;;
28802;SDS011;15949;55.656;37.422;2022-10-22T14:34:47;22.30;;;13.07;;
28802;SDS011;15949;55.656;37.422;2022-10-22T14:39:53;19.95;;;13.05;;
28802;SDS011;15949;55.656;37.422;2022-10-22T14:45:05;22.95;;;14.55;;
28802;SDS011;15949;55.656;37.422;2022-10-22T14:55:20;21.02;;;13.65;;
28802;SDS011;15949;55.656;37.422;2022-10-22T15:00:26;20.13;;;13.50;;
28802;SDS011;15949;55.656;37.422;2022-10-22T15:05:32;19.20;;;11.40;;
28802;SDS011;15949;55.656;37.422;2022-10-22T15:10:38;22.65;;;14.50;;
28802;SDS011;15949;55.656;37.422;2022-10-22T15:15:44;33.72;;;17.50;;
28802;SDS011;15949;55.656;37.422;2022-10-22T15:20:56;40.17;;;21.60;;
28802;SDS011;15949;55.656;37.422;2022-10-22T15:26:06;36.75;;;19.83;;
28802;SDS011;15949;55.656;37.422;2022-10-22T15:31:12;25.05;;;15.32;;
28802;SDS011;15949;55.656;37.422;2022-10-22T15:36:18;22.13;;;14.18;;
28802;SDS011;15949;55.656;37.422;2022-10-22T15:41:24;17.27;;;12.90;;
28802;SDS011;15949;55.656;37.422;2022-10-22T15:46:30;21.27;;;14.55;;
28802;SDS011;15949;55.656;37.422;2022-10-22T15:51:36;19.00;;;13.80;;
28802;SDS011;15949;55.656;37.422;2022-10-22T15:56:42;18.98;;;13.35;;
28802;SDS011;15949;55.656;37.422;2022-10-22T16:01:48;24.75;;;14.98;;
28802;SDS011;15949;55.656;37.422;2022-10-22T16:06:54;29.40;;;16.83;;
28802;SDS011;15949;55.656;37.422;2022-10-22T16:12:01;19.80;;;14.02;;
28802;SDS011;15949;55.656;37.422;2022-10-22T16:17:07;28.05;;;16.85;;
28802;SDS011;15949;55.656;37.422;2022-10-22T16:22:13;23.23;;;16.45;;
28802;SDS011;15949;55.656;37.422;2022-10-22T16:27:19;23.95;;;15.60;;
28802;SDS011;15949;55.656;37.422;2022-10-22T16:32:25;23.33;;;14.13;;
28802;SDS011;15949;55.656;37.422;2022-10-22T16:37:31;24.10;;;14.02;;
28802;SDS011;15949;55.656;37.422;2022-10-22T16:42:36;23.15;;;13.70;;
28802;SDS011;15949;55.656;37.422;2022-10-22T16:47:42;21.63;;;11.77;;
28802;SDS011;15949;55.656;37.422;2022-10-22T16:52:51;18.00;;;10.88;;
28802;SDS011;15949;55.656;37.422;2022-10-22T16:57:56;17.85;;;11.18;;
28802;SDS011;15949;55.656;37.422;2022-10-22T17:03:02;37.20;;;26.30;;
28802;SDS011;15949;55.656;37.422;2022-10-22T17:08:07;27.67;;;16.85;;
28802;SDS011;15949;55.656;37.422;2022-10-22T17:13:13;18.50;;;11.93;;
28802;SDS011;15949;55.656;37.422;2022-10-22T17:18:36;15.38;;;9.75;;
28802;SDS011;15949;55.656;37.422;2022-10-22T17:23:43;15.35;;;9.90;;
28802;SDS011;15949;55.656;37.422;2022-10-22T17:28:49;16.98;;;11.05;;
28802;SDS011;15949;55.656;37.422;2022-10-22T17:33:55;17.77;;;10.77;;
28802;SDS011;15949;55.656;37.422;2022-10-22T17:39:02;18.00;;;11.05;;
28802;SDS011;15949;55.656;37.422;2022-10-22T17:44:10;19.77;;;11.20;;
28802;SDS011;15949;55.656;37.422;2022-10-22T17:49:17;24.05;;;11.50;;
28802;SDS011;15949;55.656;37.422;2022-10-22T17:54:24;19.48;;;12.07;;
28802;SDS011;15949;55.656;37.422;2022-10-22T17:59:29;22.38;;;12.27;;
28802;SDS011;15949;55.656;37.422;2022-10-22T18:04:35;18.48;;;11.82;;
28802;SDS011;15949;55.656;37.422;2022-10-22T18:09:41;18.63;;;11.45;;
28802;SDS011;15949;55.656;37.422;2022-10-22T18:14:48;17.73;;;12.35;;
28802;SDS011;15949;55.656;37.422;2022-10-22T18:19:54;20.05;;;13.93;;
28802;SDS011;15949;55.656;37.422;2022-10-22T18:24:59;25.38;;;15.07;;
28802;SDS011;15949;55.656;37.422;2022-10-22T18:30:05;20.40;;;13.15;;
28802;SDS011;15949;55.656;37.422;2022-10-22T18:35:11;16.83;;;11.38;;
28802;SDS011;15949;55.656;37.422;2022-10-22T18:40:17;17.17;;;11.90;;
28802;SDS011;15949;55.656;37.422;2022-10-22T18:45:22;17.63;;;10.88;;
28802;SDS011;15949;55.656;37.422;2022-10-22T18:50:28;15.15;;;10.88;;
28802;SDS011;15949;55.656;37.422;2022-10-22T18:55:34;16.67;;;10.40;;
28802;SDS011;15949;55.656;37.422;2022-10-22T19:00:42;19.15;;;11.40;;
28802;SDS011;15949;55.656;37.422;2022-10-22T19:05:49;17.13;;;10.82;;
28802;SDS011;15949;55.656;37.422;2022-10-22T19:10:56;17.45;;;11.35;;
28802;SDS011;15949;55.656;37.422;2022-10-22T19:16:06;18.48;;;11.93;;
28802;SDS011;15949;55.656;37.422;2022-10-22T19:21:12;21.90;;;11.45;;
28802;SDS011;15949;55.656;37.422;2022-10-22T19:26:18;16.10;;;11.68;;
28802;SDS011;15949;55.656;37.422;2022-10-22T19:31:25;19.20;;;10.88;;
28802;SDS011;15949;55.656;37.422;2022-10-22T19:36:34;19.63;;;12.25;;
28802;SDS011;15949;55.656;37.422;2022-10-22T19:41:40;18.23;;;11.88;;
28802;SDS011;15949;55.656;37.422;2022-10-22T19:46:45;20.05;;;12.25;;
28802;SDS011;15949;55.656;37.422;2022-10-22T19:51:51;18.75;;;12.68;;
28802;SDS011;15949;55.656;37.422;2022-10-22T19:56:56;20.85;;;12.45;;
28802;SDS011;15949;55.656;37.422;2022-10-22T20:02:02;20.95;;;12.40;;
28802;SDS011;15949;55.656;37.422;2022-10-22T20:07:08;17.83;;;11.57;;
28802;SDS011;15949;55.656;37.422;2022-10-22T20:12:13;18.92;;;11.68;;
28802;SDS011;15949;55.656;37.422;2022-10-22T20:17:19;21.40;;;11.95;;
28802;SDS011;15949;55.656;37.422;2022-10-22T20:22:25;21.73;;;13.40;;
28802;SDS011;15949;55.656;37.422;2022-10-22T20:27:31;21.00;;;13.85;;
28802;SDS011;15949;55.656;37.422;2022-10-22T20:32:37;17.05;;;11.85;;
28802;SDS011;15949;55.656;37.422;2022-10-22T20:37:42;15.80;;;10.88;;
28802;SDS011;15949;55.656;37.422;2022-10-22T20:42:48;17.80;;;11.90;;
28802;SDS011;15949;55.656;37.422;2022-10-22T20:47:54;19.05;;;12.35;;
28802;SDS011;15949;55.656;37.422;2022-10-22T20:53:01;20.02;;;11.95;;
28802;SDS011;15949;55.656;37.422;2022-10-22T20:58:06;14.73;;;10.60;;
28802;SDS011;15949;55.656;37.422;2022-10-22T21:03:12;21.02;;;10.50;;
28802;SDS011;15949;55.656;37.422;2022-10-22T21:08:19;20.75;;;11.10;;
28802;SDS011;15949;55.656;37.422;2022-10-22T21:13:24;17.92;;;12.10;;
28802;SDS011;15949;55.656;37.422;2022-10-22T21:18:30;24.02;;;13.30;;
28802;SDS011;15949;55.656;37.422;2022-10-22T21:23:36;21.45;;;14.85;;
28802;SDS011;15949;55.656;37.422;2022-10-22T21:28:41;16.67;;;11.68;;
28802;SDS011;15949;55.656;37.422;2022-10-22T21:33:47;15.85;;;11.52;;
28802;SDS011;15949;55.656;37.422;2022-10-22T21:38:54;15.75;;;10.85;;
28802;SDS011;15949;55.656;37.422;2022-10-22T21:43:59;18.95;;;12.13;;
28802;SDS011;15949;55.656;37.422;2022-10-22T21:49:05;21.73;;;13.05;;
28802;SDS011;15949;55.656;37.422;2022-10-22T21:54:10;15.30;;;11.85;;
28802;SDS011;15949;55.656;37.422;2022-10-22T21:59:16;25.60;;;12.70;;
28802;SDS011;15949;55.656;37.422;2022-10-22T22:04:22;23.95;;;12.60;;
28802;SDS011;15949;55.656;37.422;2022-10-22T22:09:28;16.88;;;12.82;;
28802;SDS011;15949;55.656;37.422;2022-10-22T22:14:34;18.15;;;12.82;;
28802;SDS011;15949;55.656;37.422;2022-10-22T22:19:39;13.88;;;9.57;;
28802;SDS011;15949;55.656;37.422;2022-10-22T22:24:45;13.23;;;10.15;;
28802;SDS011;15949;55.656;37.422;2022-10-22T22:29:52;15.55;;;9.77;;
28802;SDS011;15949;55.656;37.422;2022-10-22T22:34:58;16.50;;;9.43;;
28802;SDS011;15949;55.656;37.422;2022-10-22T22:40:03;18.80;;;9.25;;
28802;SDS011;15949;55.656;37.422;2022-10-22T22:45:09;13.05;;;9.18;;
28802;SDS011;15949;55.656;37.422;2022-10-22T22:50:15;19.65;;;9.30;;
28802;SDS011;15949;55.656;37.422;2022-10-22T22:55:21;14.93;;;8.80;;
28802;SDS011;15949;55.656;37.422;2022-10-22T23:00:27;13.40;;;9.30;;
28802;SDS011;15949;55.656;37.422;2022-10-22T23:05:34;14.15;;;9.38;;
28802;SDS011;15949;55.656;37.422;2022-10-22T23:10:41;14.57;;;9.98;;
28802;SDS011;15949;55.656;37.422;2022-10-22T23:15:47;15.98;;;9.48;;
28802;SDS011;15949;55.656;37.422;2022-10-22T23:20:53;13.73;;;9.68;;
28802;SDS011;15949;55.656;37.422;2022-10-22T23:25:59;13.73;;;9.05;;
28802;SDS011;15949;55.656;37.422;2022-10-22T23:31:05;16.50;;;10.02;;
28802;SDS011;15949;55.656;37.422;2022-10-22T23:36:12;15.32;;;8.90;;
28802;SDS011;15949;55.656;37.422;2022-10-22T23:41:18;13.25;;;9.18;;
28802;SDS011;15949;55.656;37.422;2022-10-22T23:46:24;14.57;;;10.13;;
28802;SDS011;15949;55.656;37.422;2022-10-22T23:51:29;14.32;;;9.60;;
28802;SDS011;15949;55.656;37.422;2022-10-22T23:56:35;16.75;;;10.20;;
